createdAt,value
2023-03-07T00:00:33.787Z,29.90
2023-03-07T00:01:33.802Z,34.10
2023-03-07T00:02:33.871Z,32.90
2023-03-07T00:03:33.789Z,33.00
2023-03-07T00:04:33.839Z,29.20
2023-03-07T00:05:33.782Z,30.90
2023-03-07T00:06:33.769Z,31.90
2023-03-07T00:07:33.760Z,31.60
2023-03-07T00:08:33.766Z,28.50
2023-03-07T00:09:33.771Z,27.60
2023-03-07T00:10:33.735Z,35.40
2023-03-07T00:11:33.743Z,27.80
2023-03-07T00:12:33.738Z,26.80
2023-03-07T00:13:33.711Z,31.20
2023-03-07T00:14:33.719Z,27.10
2023-03-07T00:15:33.723Z,31.50
2023-03-07T00:16:33.761Z,29.30
2023-03-07T00:17:33.663Z,30.70
2023-03-07T00:18:33.675Z,29.00
2023-03-07T00:19:33.688Z,33.00
2023-03-07T00:20:33.679Z,30.20
2023-03-07T00:21:33.661Z,30.40
2023-03-07T00:22:33.661Z,31.10
2023-03-07T00:23:33.650Z,33.20
2023-03-07T00:24:33.694Z,31.80
2023-03-07T00:25:34.332Z,28.30
2023-03-07T00:26:33.657Z,30.70
2023-03-07T00:27:33.642Z,32.00
2023-03-07T00:28:33.610Z,33.70
2023-03-07T00:29:33.607Z,31.70
2023-03-07T00:30:33.572Z,35.10
2023-03-07T00:31:33.595Z,33.80
2023-03-07T00:32:34.223Z,26.60
2023-03-07T00:33:33.574Z,31.90
2023-03-07T00:34:33.580Z,33.00
2023-03-07T00:35:33.572Z,31.40
2023-03-07T00:36:33.568Z,31.80
2023-03-07T00:37:33.518Z,31.40
2023-03-07T00:38:33.509Z,29.30
2023-03-07T00:40:19.091Z,29.20
2023-03-07T00:41:19.121Z,28.10
2023-03-07T00:42:19.092Z,34.10
2023-03-07T00:43:20.230Z,29.80
2023-03-07T00:44:21.023Z,26.50
2023-03-07T00:45:20.837Z,35.40
2023-03-07T00:46:52.790Z,23.40
2023-03-07T00:47:20.203Z,33.40
2023-03-07T00:48:46.340Z,30.40
2023-03-07T00:49:20.246Z,30.80
2023-03-07T00:50:20.179Z,29.80
2023-03-07T00:51:52.120Z,32.40
2023-03-07T00:52:20.263Z,32.00
2023-03-07T00:53:20.165Z,27.70
2023-03-07T00:54:20.195Z,33.20
2023-03-07T00:55:20.169Z,30.40
2023-03-07T00:56:20.136Z,29.70
2023-03-07T00:57:20.156Z,38.10
2023-03-07T00:58:20.136Z,31.30
2023-03-07T00:59:20.947Z,32.80
2023-03-07T01:00:20.116Z,36.40
2023-03-07T01:01:20.147Z,31.40
2023-03-07T01:02:20.118Z,33.50
2023-03-07T01:03:20.075Z,39.40
2023-03-07T01:04:20.068Z,34.30
2023-03-07T01:05:20.082Z,40.20
2023-03-07T01:06:20.048Z,37.50
2023-03-07T01:07:20.099Z,39.80
2023-03-07T01:08:20.067Z,39.20
2023-03-07T01:09:20.080Z,41.90
2023-03-07T01:10:20.038Z,38.70
2023-03-07T01:11:20.016Z,39.40
2023-03-07T01:12:20.056Z,35.30
2023-03-07T01:13:20.033Z,46.20
2023-03-07T01:14:20.161Z,42.60
2023-03-07T01:15:20.067Z,45.20
2023-03-07T01:16:20.080Z,45.40
2023-03-07T01:17:20.036Z,45.50
2023-03-07T01:18:19.978Z,42.70
2023-03-07T01:19:20.301Z,45.40
2023-03-07T01:20:19.998Z,41.80
2023-03-07T01:21:19.977Z,46.60
2023-03-07T01:22:20.169Z,51.30
2023-03-07T01:23:19.966Z,49.00
2023-03-07T01:24:19.928Z,47.70
2023-03-07T01:25:19.924Z,47.50
2023-03-07T01:26:19.935Z,51.90
2023-03-07T01:27:19.927Z,40.10
2023-03-07T01:28:19.941Z,44.20
2023-03-07T01:29:19.900Z,33.00
2023-03-07T01:30:19.909Z,39.10
2023-03-07T01:31:19.920Z,48.10
2023-03-07T01:32:19.893Z,44.10
2023-03-07T01:33:19.879Z,44.00
2023-03-07T01:34:19.876Z,48.70
2023-03-07T01:35:19.899Z,44.70
2023-03-07T01:36:20.010Z,46.20
2023-03-07T01:37:19.847Z,41.80
2023-03-07T01:38:19.819Z,38.90
2023-03-07T01:39:19.806Z,45.60
2023-03-07T01:40:19.847Z,30.00
2023-03-07T01:41:19.811Z,45.40
2023-03-07T01:42:19.822Z,46.10
2023-03-07T01:43:19.796Z,40.60
2023-03-07T01:44:19.818Z,45.10
2023-03-07T01:45:19.775Z,41.20
2023-03-07T01:46:19.804Z,44.70
2023-03-07T01:47:19.756Z,34.40
2023-03-07T01:48:20.441Z,37.60
2023-03-07T01:49:19.766Z,36.20
2023-03-07T01:50:19.752Z,33.10
2023-03-07T01:51:19.749Z,38.60
2023-03-07T01:52:19.710Z,36.90
2023-03-07T01:53:19.693Z,38.10
2023-03-07T01:54:19.720Z,40.30
2023-03-07T01:55:19.743Z,43.80
2023-03-07T01:56:19.689Z,40.30
2023-03-07T01:57:19.716Z,41.70
2023-03-07T01:58:19.694Z,30.40
2023-03-07T01:59:19.663Z,34.80
2023-03-07T02:00:19.663Z,34.40
2023-03-07T02:01:19.795Z,29.30
2023-03-07T02:02:19.660Z,32.00
2023-03-07T02:03:19.627Z,31.10
2023-03-07T02:04:19.705Z,28.50
2023-03-07T02:05:19.638Z,32.90
2023-03-07T02:06:19.643Z,31.30
2023-03-07T02:07:19.697Z,32.20
2023-03-07T02:08:19.613Z,25.00
2023-03-07T02:09:19.610Z,25.00
2023-03-07T02:10:19.570Z,26.80
2023-03-07T02:11:19.573Z,23.60
2023-03-07T02:12:21.086Z,27.90
2023-03-07T02:13:19.568Z,31.40
2023-03-07T02:14:19.558Z,25.70
2023-03-07T02:15:19.541Z,25.10
2023-03-07T02:16:19.571Z,33.30
2023-03-07T02:17:20.472Z,28.90
2023-03-07T02:18:19.540Z,20.20
2023-03-07T02:19:19.560Z,31.60
2023-03-07T02:20:19.568Z,29.80
2023-03-07T02:21:19.562Z,22.60
2023-03-07T02:22:19.519Z,32.20
2023-03-07T02:23:19.513Z,29.00
2023-03-07T02:24:19.458Z,25.80
2023-03-07T02:25:19.463Z,31.20
2023-03-07T02:26:19.465Z,29.00
2023-03-07T02:27:19.471Z,23.20
2023-03-07T02:28:19.451Z,27.10
2023-03-07T02:29:19.460Z,30.00
2023-03-07T02:30:20.427Z,28.20
2023-03-07T02:31:19.455Z,29.40
2023-03-07T02:32:19.469Z,27.80
2023-03-07T02:33:19.426Z,28.30
2023-03-07T02:34:19.401Z,25.40
2023-03-07T02:35:19.447Z,27.50
2023-03-07T02:36:19.396Z,30.70
2023-03-07T02:37:19.414Z,29.20
2023-03-07T02:38:19.398Z,25.80
2023-03-07T02:39:19.364Z,30.40
2023-03-07T02:40:19.362Z,24.50
2023-03-07T02:41:19.351Z,31.50
2023-03-07T02:42:19.321Z,27.20
2023-03-07T02:43:19.341Z,31.50
2023-03-07T02:44:19.324Z,26.10
2023-03-07T02:45:19.365Z,28.30
2023-03-07T02:46:19.345Z,33.80
2023-03-07T02:47:19.312Z,23.70
2023-03-07T02:48:19.271Z,22.80
2023-03-07T02:49:19.302Z,29.00
2023-03-07T02:50:19.310Z,30.40
2023-03-07T02:51:19.269Z,29.50
2023-03-07T02:52:19.295Z,27.00
2023-03-07T02:53:19.260Z,23.00
2023-03-07T02:54:20.271Z,25.90
2023-03-07T02:55:19.281Z,26.90
2023-03-07T02:56:19.986Z,29.90
2023-03-07T02:57:19.278Z,23.80
2023-03-07T02:58:19.217Z,28.60
2023-03-07T02:59:19.216Z,28.00
2023-03-07T03:00:19.221Z,29.70
2023-03-07T03:01:20.257Z,20.50
2023-03-07T03:02:19.204Z,26.20
2023-03-07T03:03:19.187Z,34.10
2023-03-07T03:04:19.278Z,35.30
2023-03-07T03:05:19.250Z,23.90
2023-03-07T03:06:19.998Z,30.90
2023-03-07T03:07:19.166Z,34.50
2023-03-07T03:08:19.134Z,33.10
2023-03-07T03:09:19.143Z,19.90
2023-03-07T03:10:19.137Z,33.40
2023-03-07T03:11:19.186Z,30.40
2023-03-07T03:12:19.128Z,33.40
2023-03-07T03:13:20.124Z,33.70
2023-03-07T03:14:19.092Z,31.80
2023-03-07T03:15:19.121Z,26.20
2023-03-07T03:16:19.152Z,28.20
2023-03-07T03:17:19.527Z,29.90
2023-03-07T03:18:19.111Z,26.50
2023-03-07T03:19:19.068Z,30.30
2023-03-07T03:20:19.081Z,27.60
2023-03-07T03:21:19.031Z,26.10
2023-03-07T03:22:19.084Z,29.70
2023-03-07T03:23:19.056Z,28.50
2023-03-07T03:24:19.040Z,29.70
2023-03-07T03:25:19.005Z,33.00
2023-03-07T03:26:19.033Z,32.40
2023-03-07T03:27:50.982Z,34.50
2023-03-07T03:28:18.989Z,28.40
2023-03-07T03:29:18.996Z,33.40
2023-03-07T03:30:18.977Z,34.70
2023-03-07T03:31:19.072Z,32.50
2023-03-07T03:32:19.012Z,34.50
2023-03-07T03:33:18.997Z,28.00
2023-03-07T03:34:18.972Z,34.10
2023-03-07T03:35:18.952Z,29.90
2023-03-07T03:36:18.929Z,36.20
2023-03-07T03:37:18.918Z,33.20
2023-03-07T03:38:18.932Z,31.50
2023-03-07T03:39:18.963Z,30.40
2023-03-07T03:40:18.918Z,32.50
2023-03-07T03:41:19.485Z,28.30
2023-03-07T03:42:18.882Z,37.40
2023-03-07T03:43:18.906Z,31.10
2023-03-07T03:44:18.936Z,29.50
2023-03-07T03:45:18.894Z,37.50
2023-03-07T03:46:18.897Z,35.20
2023-03-07T03:47:18.886Z,35.80
2023-03-07T04:02:34.254Z,13.90
2023-03-07T04:03:34.282Z,15.70
2023-03-07T04:04:34.103Z,17.70
2023-03-07T04:05:35.243Z,18.60
2023-03-07T04:06:35.230Z,22.70
2023-03-07T04:07:35.248Z,27.60
2023-03-07T04:08:35.221Z,24.10
2023-03-07T04:09:35.196Z,21.90
2023-03-07T04:10:35.209Z,24.80
2023-03-07T04:11:35.212Z,23.40
2023-03-07T04:12:35.178Z,25.70
2023-03-07T04:13:35.176Z,19.10
2023-03-07T04:14:35.188Z,19.90
2023-03-07T04:15:35.181Z,22.30
2023-03-07T04:16:35.166Z,24.30
2023-03-07T04:17:35.162Z,23.80
2023-03-07T04:18:35.135Z,20.50
2023-03-07T04:19:35.124Z,15.70
2023-03-07T04:20:35.851Z,17.10
2023-03-07T04:21:36.170Z,22.50
2023-03-07T04:22:35.103Z,18.50
2023-03-07T04:23:35.092Z,22.50
2023-03-07T04:24:35.092Z,23.70
2023-03-07T04:25:35.106Z,14.40
2023-03-07T04:26:35.115Z,15.60
2023-03-07T04:27:35.068Z,21.20
2023-03-07T04:28:35.047Z,19.30
2023-03-07T04:29:35.372Z,21.30
2023-03-07T04:30:35.068Z,20.10
2023-03-07T04:32:07.789Z,18.70
2023-03-07T04:32:35.100Z,17.00
2023-03-07T04:33:35.051Z,14.60
2023-03-07T04:34:35.050Z,19.10
2023-03-07T04:35:35.095Z,17.50
2023-03-07T04:36:35.715Z,16.30
2023-03-07T04:37:36.026Z,20.30
2023-03-07T04:38:34.975Z,20.30
2023-03-07T04:39:35.429Z,19.90
2023-03-07T04:40:35.001Z,22.30
2023-03-07T04:41:34.947Z,17.00
2023-03-07T04:42:34.958Z,15.10
2023-03-07T04:43:34.954Z,17.10
2023-03-07T04:44:34.962Z,16.50
2023-03-07T04:45:35.102Z,16.40
2023-03-07T04:46:34.944Z,15.00
2023-03-07T04:47:34.922Z,17.70
2023-03-07T04:48:34.924Z,14.00
2023-03-07T04:49:34.918Z,16.70
2023-03-07T04:50:34.902Z,20.00
2023-03-07T04:51:34.896Z,19.80
2023-03-07T04:52:34.874Z,18.40
2023-03-07T04:53:34.904Z,18.70
2023-03-07T04:54:34.892Z,19.40
2023-03-07T04:55:34.863Z,17.40
2023-03-07T04:56:34.886Z,17.80
2023-03-07T04:57:34.823Z,18.60
2023-03-07T04:58:34.835Z,16.00
2023-03-07T04:59:34.823Z,13.40
2023-03-07T05:00:34.874Z,15.30
2023-03-07T05:01:34.979Z,15.60
2023-03-07T05:02:34.825Z,18.70
2023-03-07T05:03:34.789Z,15.70
2023-03-07T05:04:34.947Z,15.50
2023-03-07T05:05:37.449Z,17.60
2023-03-07T05:06:35.451Z,19.10
2023-03-07T05:07:34.756Z,17.50
2023-03-07T05:08:34.780Z,15.10
2023-03-07T05:09:34.722Z,18.30
2023-03-07T05:10:34.735Z,18.00
2023-03-07T05:11:34.763Z,18.20
2023-03-07T05:12:34.731Z,17.30
2023-03-07T05:13:34.703Z,18.30
2023-03-07T05:14:34.707Z,17.80
2023-03-07T05:15:34.789Z,17.90
2023-03-07T05:16:34.720Z,18.20
2023-03-07T05:17:35.399Z,19.50
2023-03-07T05:18:34.686Z,16.70
2023-03-07T05:19:34.685Z,12.70
2023-03-07T05:20:34.674Z,16.00
2023-03-07T05:21:35.349Z,15.90
2023-03-07T05:22:34.747Z,15.90
2023-03-07T05:23:34.639Z,15.80
2023-03-07T05:24:34.628Z,18.40
2023-03-07T05:25:34.656Z,15.00
2023-03-07T05:26:34.635Z,20.20
2023-03-07T05:27:34.586Z,17.20
2023-03-07T05:28:34.600Z,13.30
2023-03-07T05:29:34.600Z,15.60
2023-03-07T05:30:34.591Z,17.20
2023-03-07T05:31:34.787Z,17.20
2023-03-07T05:32:34.567Z,14.90
2023-03-07T05:33:34.564Z,15.00
2023-03-07T05:34:34.632Z,16.10
2023-03-07T05:35:34.568Z,13.20
2023-03-07T05:36:34.548Z,13.20
2023-03-07T05:37:34.530Z,14.70
2023-03-07T05:38:34.543Z,15.70
2023-03-07T05:39:34.515Z,17.00
2023-03-07T05:40:34.546Z,18.00
2023-03-07T05:41:34.509Z,14.20
2023-03-07T05:42:34.487Z,16.90
2023-03-07T05:43:34.516Z,16.00
2023-03-07T05:44:34.471Z,18.50
2023-03-07T05:45:35.480Z,16.70
2023-03-07T05:46:34.502Z,16.30
2023-03-07T05:47:34.497Z,17.40
2023-03-07T05:48:34.507Z,16.10
2023-03-07T05:49:34.449Z,17.10
2023-03-07T05:50:34.441Z,12.20
2023-03-07T05:51:34.420Z,13.90
2023-03-07T05:52:34.501Z,17.00
2023-03-07T05:53:34.397Z,16.80
2023-03-07T05:54:34.405Z,14.00
2023-03-07T05:55:34.403Z,14.40
2023-03-07T05:56:34.380Z,16.30
2023-03-07T05:57:34.354Z,14.80
2023-03-07T05:58:34.369Z,16.90
2023-03-07T05:59:34.390Z,18.40
2023-03-07T06:00:34.390Z,18.80
2023-03-07T06:01:34.342Z,16.40
2023-03-07T06:02:34.381Z,18.20
2023-03-07T06:03:34.365Z,19.60
2023-03-07T06:04:34.307Z,19.50
2023-03-07T06:05:34.326Z,18.20
2023-03-07T06:06:34.315Z,17.10
2023-03-07T06:07:34.299Z,19.40
2023-03-07T06:08:34.280Z,19.30
2023-03-07T06:09:34.388Z,15.00
2023-03-07T06:10:34.297Z,19.90
2023-03-07T06:11:34.269Z,11.40
2023-03-07T06:12:34.293Z,16.90
2023-03-07T06:13:34.258Z,16.80
2023-03-07T06:14:34.285Z,19.00
2023-03-07T06:15:34.246Z,17.90
2023-03-07T06:16:34.238Z,14.90
2023-03-07T06:17:34.255Z,19.10
2023-03-07T06:18:34.209Z,17.50
2023-03-07T06:19:34.250Z,16.20
2023-03-07T06:20:34.185Z,17.70
2023-03-07T06:21:34.205Z,18.20
2023-03-07T06:22:34.201Z,19.00
2023-03-07T06:23:34.191Z,17.00
2023-03-07T06:24:34.244Z,15.90
2023-03-07T06:25:34.188Z,17.00
2023-03-07T06:26:34.201Z,15.90
2023-03-07T06:27:34.182Z,17.30
2023-03-07T06:28:34.173Z,16.50
2023-03-07T06:29:34.138Z,15.60
2023-03-07T06:30:34.123Z,13.90
2023-03-07T06:31:34.184Z,15.40
2023-03-07T06:32:34.130Z,15.20
2023-03-07T06:33:34.099Z,16.40
2023-03-07T06:34:34.129Z,15.40
2023-03-07T06:35:34.098Z,15.80
2023-03-07T06:36:34.133Z,16.60
2023-03-07T06:37:34.077Z,12.50
2023-03-07T06:38:34.155Z,17.80
2023-03-07T06:39:34.102Z,13.20
2023-03-07T06:40:34.063Z,18.00
2023-03-07T06:41:34.062Z,15.70
2023-03-07T06:42:34.064Z,13.40
2023-03-07T06:43:34.026Z,14.60
2023-03-07T06:44:34.039Z,18.00
2023-03-07T06:45:34.133Z,13.10
2023-03-07T06:46:34.061Z,14.70
2023-03-07T06:47:34.111Z,18.00
2023-03-07T06:48:34.042Z,17.30
2023-03-07T06:49:34.025Z,16.00
2023-03-07T06:50:35.730Z,16.20
2023-03-07T06:51:37.704Z,15.60
2023-03-07T06:52:34.954Z,15.00
2023-03-07T06:53:33.938Z,14.90
2023-03-07T06:54:33.941Z,22.30
2023-03-07T06:55:34.012Z,18.30
2023-03-07T06:56:33.946Z,20.10
2023-03-07T06:57:33.927Z,19.40
2023-03-07T06:58:33.971Z,19.90
2023-03-07T06:59:33.910Z,19.10
2023-03-07T07:00:33.925Z,18.30
2023-03-07T07:01:33.915Z,18.70
2023-03-07T07:02:34.102Z,19.90
2023-03-07T07:03:33.858Z,19.00
2023-03-07T07:04:33.894Z,19.00
2023-03-07T07:05:33.864Z,17.70
2023-03-07T07:06:33.837Z,16.20
2023-03-07T07:07:34.920Z,20.60
2023-03-07T07:08:33.873Z,19.60
2023-03-07T07:09:33.836Z,20.90
2023-03-07T07:10:33.819Z,22.30
2023-03-07T07:11:33.893Z,19.60
2023-03-07T07:12:33.860Z,18.90
2023-03-07T07:13:33.807Z,17.10
2023-03-07T07:14:33.772Z,19.80
2023-03-07T07:15:33.801Z,19.90
2023-03-07T07:16:33.922Z,22.10
2023-03-07T07:17:33.804Z,20.90
2023-03-07T07:18:33.759Z,21.90
2023-03-07T07:19:33.773Z,20.20
2023-03-07T07:20:33.757Z,20.40
2023-03-07T07:21:33.756Z,20.10
2023-03-07T07:22:33.729Z,22.10
2023-03-07T07:23:33.737Z,22.80
2023-03-07T07:24:33.741Z,22.30
2023-03-07T07:25:33.735Z,17.40
2023-03-07T07:26:33.755Z,22.10
2023-03-07T07:27:33.712Z,21.80
2023-03-07T07:28:33.695Z,20.90
2023-03-07T07:29:33.677Z,19.70
2023-03-07T07:30:33.687Z,18.90
2023-03-07T07:31:33.726Z,16.70
2023-03-07T07:32:33.917Z,16.70
2023-03-07T07:33:33.660Z,19.20
2023-03-07T07:34:33.653Z,21.20
2023-03-07T07:35:33.668Z,18.30
2023-03-07T07:36:33.616Z,20.70
2023-03-07T07:37:33.672Z,19.20
2023-03-07T07:38:33.627Z,20.30
2023-03-07T07:39:33.623Z,19.70
2023-03-07T07:40:33.589Z,21.90
2023-03-07T07:41:33.600Z,17.60
2023-03-07T07:42:33.603Z,16.10
2023-03-07T07:43:33.563Z,20.20
2023-03-07T07:44:33.589Z,20.80
2023-03-07T07:45:33.583Z,15.10
2023-03-07T07:46:33.563Z,18.50
2023-03-07T07:47:33.541Z,16.90
2023-03-07T07:48:33.531Z,14.30
2023-03-07T07:49:33.529Z,16.60
2023-03-07T07:50:33.537Z,16.90
2023-03-07T07:51:33.543Z,17.90
2023-03-07T07:52:33.532Z,18.10
2023-03-07T07:53:33.504Z,21.10
2023-03-07T07:54:33.488Z,15.40
2023-03-07T07:55:33.512Z,16.50
2023-03-07T07:56:33.556Z,16.80
2023-03-07T07:57:33.473Z,14.50
2023-03-07T07:58:33.502Z,15.50
2023-03-07T07:59:33.453Z,16.10
2023-03-07T08:00:33.471Z,18.70
2023-03-07T08:01:33.464Z,14.70
2023-03-07T08:02:33.521Z,18.00
2023-03-07T08:03:33.480Z,15.40
2023-03-07T08:04:33.426Z,17.60
2023-03-07T08:05:33.445Z,17.90
2023-03-07T08:06:33.417Z,16.70
2023-03-07T08:07:33.403Z,15.60
2023-03-07T08:08:33.484Z,19.50
2023-03-07T08:09:33.454Z,15.30
2023-03-07T08:10:33.430Z,19.90
2023-03-07T08:11:33.392Z,21.10
2023-03-07T08:12:33.433Z,16.50
2023-03-07T08:13:33.402Z,21.50
2023-03-07T08:14:33.340Z,16.90
2023-03-07T08:15:33.340Z,14.90
2023-03-07T08:16:33.368Z,21.30
2023-03-07T08:17:33.317Z,17.20
2023-03-07T08:18:33.395Z,18.00
2023-03-07T08:19:33.334Z,18.10
2023-03-07T08:20:33.389Z,19.70
2023-03-07T08:21:33.284Z,21.30
2023-03-07T08:22:33.322Z,22.80
2023-03-07T08:23:33.305Z,19.90
2023-03-07T08:24:40.714Z,15.00
2023-03-07T08:25:35.283Z,16.80
2023-03-07T08:26:33.261Z,19.00
2023-03-07T08:27:33.267Z,14.20
2023-03-07T08:28:33.285Z,15.30
2023-03-07T08:29:33.292Z,20.70
2023-03-07T08:30:33.226Z,19.10
2023-03-07T08:31:33.247Z,15.50
2023-03-07T08:32:33.249Z,19.60
2023-03-07T08:33:33.221Z,18.10
2023-03-07T08:34:33.217Z,20.60
2023-03-07T08:35:33.275Z,17.60
2023-03-07T08:36:33.170Z,14.90
2023-03-07T08:37:33.186Z,19.30
2023-03-07T08:38:33.163Z,18.90
2023-03-07T08:39:33.145Z,15.80
2023-03-07T08:40:33.203Z,19.20
2023-03-07T08:41:33.173Z,18.70
2023-03-07T08:42:33.324Z,25.60
2023-03-07T08:43:33.132Z,12.40
2023-03-07T08:44:33.130Z,14.50
2023-03-07T08:45:33.141Z,17.40
2023-03-07T08:46:33.158Z,14.30
2023-03-07T08:47:33.183Z,15.50
2023-03-07T08:48:33.079Z,20.00
2023-03-07T08:49:33.079Z,21.30
2023-03-07T08:50:33.068Z,20.10
2023-03-07T08:51:33.084Z,19.90
2023-03-07T08:52:33.042Z,20.10
2023-03-07T08:53:34.067Z,20.10
2023-03-07T08:54:33.082Z,17.40
2023-03-07T08:55:33.015Z,21.40
2023-03-07T08:56:33.044Z,17.20
2023-03-07T08:57:33.065Z,16.90
2023-03-07T08:58:33.015Z,18.60
2023-03-07T08:59:33.804Z,18.30
2023-03-07T09:00:32.988Z,16.60
2023-03-07T09:01:33.019Z,15.90
2023-03-07T09:02:32.992Z,22.80
2023-03-07T09:03:32.959Z,24.60
2023-03-07T09:04:32.996Z,20.70
2023-03-07T09:05:32.983Z,26.00
2023-03-07T09:06:33.055Z,21.20
2023-03-07T09:07:33.921Z,16.70
2023-03-07T09:08:32.957Z,16.20
2023-03-07T09:09:32.933Z,16.50
2023-03-07T09:10:32.955Z,14.70
2023-03-07T09:11:32.920Z,20.30
2023-03-07T09:12:33.952Z,15.10
2023-03-07T09:13:36.048Z,16.70
2023-03-07T09:14:34.920Z,18.30
2023-03-07T09:15:32.897Z,18.40
2023-03-07T09:16:32.913Z,16.40
2023-03-07T09:17:32.884Z,19.60
2023-03-07T09:18:32.851Z,15.40
2023-03-07T09:19:32.870Z,18.80
2023-03-07T09:20:32.845Z,16.40
2023-03-07T09:21:32.867Z,12.80
2023-03-07T09:22:32.831Z,12.20
2023-03-07T09:23:32.913Z,12.60
2023-03-07T09:24:32.831Z,14.60
2023-03-07T09:25:32.801Z,15.80
2023-03-07T09:26:32.792Z,12.00
2023-03-07T09:27:32.799Z,11.20
2023-03-07T09:28:32.820Z,13.30
2023-03-07T09:29:32.820Z,12.80
2023-03-07T09:30:32.766Z,11.70
2023-03-07T09:31:32.793Z,12.20
2023-03-07T09:32:32.805Z,13.70
2023-03-07T09:33:32.766Z,9.30
2023-03-07T09:34:32.748Z,9.70
2023-03-07T09:35:32.766Z,10.70
2023-03-07T09:36:33.745Z,12.90
2023-03-07T09:37:32.725Z,14.70
2023-03-07T09:38:32.783Z,14.00
2023-03-07T09:39:32.718Z,18.00
2023-03-07T09:40:32.751Z,13.40
2023-03-07T09:41:32.697Z,12.40
2023-03-07T09:42:32.702Z,16.50
2023-03-07T09:43:33.310Z,15.00
2023-03-07T09:44:32.704Z,13.00
2023-03-07T09:45:32.680Z,13.00
2023-03-07T09:46:32.683Z,10.20
2023-03-07T09:48:05.390Z,11.40
2023-03-07T09:48:32.634Z,12.30
2023-03-07T09:49:32.636Z,12.60
2023-03-07T09:50:32.634Z,13.20
2023-03-07T09:51:32.630Z,13.40
2023-03-07T09:52:32.630Z,12.20
2023-03-07T09:53:32.600Z,14.50
2023-03-07T09:54:32.613Z,12.60
2023-03-07T09:55:32.588Z,20.70
2023-03-07T09:56:32.649Z,19.50
2023-03-07T09:57:32.579Z,10.40
2023-03-07T09:58:32.562Z,16.80
2023-03-07T09:59:32.578Z,14.30
2023-03-07T10:00:32.580Z,13.40
2023-03-07T10:01:32.529Z,16.10
2023-03-07T10:02:32.569Z,12.00
2023-03-07T10:03:33.441Z,10.80
2023-03-07T10:04:32.586Z,11.20
2023-03-07T10:05:32.529Z,14.80
2023-03-07T10:06:32.525Z,10.90
2023-03-07T10:07:32.551Z,15.10
2023-03-07T10:08:32.500Z,10.70
2023-03-07T10:09:32.491Z,10.90
2023-03-07T10:10:33.439Z,14.00
2023-03-07T10:11:32.459Z,14.90
2023-03-07T10:12:32.466Z,13.30
2023-03-07T10:13:32.442Z,12.40
2023-03-07T10:14:32.482Z,14.60
2023-03-07T10:15:32.518Z,14.00
2023-03-07T10:16:32.443Z,14.20
2023-03-07T10:17:32.590Z,14.00
2023-03-07T10:18:33.441Z,14.30
2023-03-07T10:19:32.902Z,12.20
2023-03-07T10:20:32.415Z,13.50
2023-03-07T10:21:32.409Z,14.20
2023-03-07T10:22:32.371Z,14.50
2023-03-07T10:23:32.429Z,13.70
2023-03-07T10:24:32.364Z,11.30
2023-03-07T10:25:32.364Z,13.30
2023-03-07T10:26:32.368Z,15.20
2023-03-07T10:27:32.358Z,15.10
2023-03-07T10:28:32.336Z,13.70
2023-03-07T10:29:32.322Z,15.00
2023-03-07T10:30:32.333Z,15.50
2023-03-07T10:32:04.928Z,13.40
2023-03-07T10:32:32.407Z,18.10
2023-03-07T10:33:32.459Z,10.10
2023-03-07T10:34:32.921Z,16.10
2023-03-07T10:35:33.356Z,15.30
2023-03-07T10:36:32.336Z,14.50
2023-03-07T10:37:32.301Z,11.90
2023-03-07T10:38:32.294Z,11.80
2023-03-07T10:39:32.408Z,12.60
2023-03-07T10:40:32.342Z,12.90
2023-03-07T10:41:32.286Z,11.30
2023-03-07T10:42:32.302Z,14.30
2023-03-07T10:43:32.275Z,12.10
2023-03-07T10:44:32.288Z,11.60
2023-03-07T10:45:32.397Z,12.40
2023-03-07T10:46:32.344Z,16.20
2023-03-07T10:47:32.193Z,10.70
2023-03-07T10:48:32.230Z,10.80
2023-03-07T10:49:32.997Z,13.40
2023-03-07T10:50:32.266Z,11.10
2023-03-07T10:51:32.192Z,9.50
2023-03-07T10:52:32.176Z,13.00
2023-03-07T10:53:32.264Z,10.70
2023-03-07T10:54:32.134Z,11.60
2023-03-07T10:55:32.182Z,11.60
2023-03-07T10:56:32.132Z,12.90
2023-03-07T10:57:32.420Z,12.40
2023-03-07T10:58:32.193Z,10.30
2023-03-07T10:59:32.120Z,11.70
2023-03-07T11:00:32.190Z,15.00
2023-03-07T11:01:32.212Z,13.20
2023-03-07T11:02:33.076Z,12.20
2023-03-07T11:03:42.489Z,13.20
2023-03-07T11:04:34.115Z,15.10
2023-03-07T11:05:32.093Z,12.00
2023-03-07T11:06:32.082Z,13.50
2023-03-07T11:07:32.073Z,16.30
2023-03-07T11:08:32.039Z,12.70
2023-03-07T11:09:32.091Z,13.20
2023-03-07T11:10:32.478Z,14.00
2023-03-07T11:11:32.972Z,15.20
2023-03-07T11:12:32.077Z,12.80
2023-03-07T11:13:31.996Z,10.90
2023-03-07T11:14:31.976Z,11.70
2023-03-07T11:15:32.045Z,14.20
2023-03-07T11:16:32.041Z,14.00
2023-03-07T11:17:31.959Z,14.90
2023-03-07T11:18:32.012Z,15.90
2023-03-07T11:19:31.954Z,13.30
2023-03-07T11:20:31.931Z,16.40
2023-03-07T11:21:31.943Z,12.30
2023-03-07T11:22:31.972Z,12.30
2023-03-07T11:23:31.913Z,14.80
2023-03-07T11:24:31.920Z,15.40
2023-03-07T11:25:31.904Z,16.70
2023-03-07T11:26:32.650Z,13.20
2023-03-07T11:27:31.998Z,12.40
2023-03-07T11:28:31.910Z,11.70
2023-03-07T11:29:31.907Z,11.10
2023-03-07T11:30:31.877Z,14.70
2023-03-07T11:31:31.895Z,15.10
2023-03-07T11:32:31.950Z,14.50
2023-03-07T11:33:31.888Z,15.10
2023-03-07T11:34:31.872Z,12.40
2023-03-07T11:35:31.837Z,15.30
2023-03-07T11:36:31.816Z,14.20
2023-03-07T11:37:31.823Z,16.00
2023-03-07T11:38:31.858Z,13.50
2023-03-07T11:39:31.817Z,13.90
2023-03-07T11:40:31.845Z,14.50
2023-03-07T11:41:31.785Z,13.60
2023-03-07T11:42:31.779Z,12.40
2023-03-07T11:43:31.778Z,12.00
2023-03-07T11:44:31.770Z,11.50
2023-03-07T11:45:31.826Z,13.30
2023-03-07T11:46:31.983Z,11.20
2023-03-07T11:47:32.471Z,12.80
2023-03-07T11:48:31.758Z,14.40
2023-03-07T11:49:31.760Z,16.40
2023-03-07T11:50:31.708Z,11.40
2023-03-07T11:51:31.710Z,13.80
2023-03-07T11:52:31.680Z,12.70
2023-03-07T11:53:31.679Z,17.50
2023-03-07T11:54:31.723Z,11.40
2023-03-07T11:55:31.672Z,11.80
2023-03-07T11:56:31.657Z,12.40
2023-03-07T11:57:31.676Z,12.30
2023-03-07T11:58:31.665Z,13.90
2023-03-07T11:59:31.625Z,12.80
2023-03-07T12:00:32.498Z,10.60
2023-03-07T12:01:31.635Z,10.20
2023-03-07T12:02:32.493Z,14.30
2023-03-07T12:03:31.692Z,14.90
2023-03-07T12:04:31.646Z,11.30
2023-03-07T12:05:31.682Z,11.30
2023-03-07T12:06:31.588Z,12.00
2023-03-07T12:07:32.400Z,13.80
2023-03-07T12:08:32.604Z,14.50
2023-03-07T12:09:31.576Z,13.10
2023-03-07T12:10:31.544Z,12.40
2023-03-07T12:11:31.548Z,12.60
2023-03-07T12:12:31.559Z,12.90
2023-03-07T12:13:32.100Z,14.50
2023-03-07T12:14:32.520Z,14.50
2023-03-07T12:15:31.533Z,14.30
2023-03-07T12:16:32.583Z,14.30
2023-03-07T12:17:32.512Z,13.60
2023-03-07T12:18:31.527Z,11.30
2023-03-07T12:19:32.772Z,11.20
2023-03-07T12:20:32.493Z,15.30
2023-03-07T12:21:31.556Z,14.00
2023-03-07T12:22:31.532Z,13.80
2023-03-07T12:23:32.456Z,14.40
2023-03-07T12:24:31.465Z,11.90
2023-03-07T12:25:31.545Z,10.50
2023-03-07T12:26:31.455Z,10.90
2023-03-07T12:27:31.490Z,10.20
2023-03-07T12:28:31.469Z,12.20
2023-03-07T12:29:31.410Z,13.40
2023-03-07T12:30:31.418Z,10.40
2023-03-07T12:31:31.453Z,13.10
2023-03-07T12:32:31.540Z,12.60
2023-03-07T12:33:31.572Z,13.00
2023-03-07T12:34:31.388Z,13.90
2023-03-07T12:35:31.379Z,14.40
2023-03-07T12:36:31.535Z,11.40
2023-03-07T12:37:31.362Z,10.50
2023-03-07T12:38:31.384Z,9.90
2023-03-07T12:39:31.340Z,13.50
2023-03-07T12:40:31.336Z,13.80
2023-03-07T12:41:31.358Z,9.50
2023-03-07T12:42:31.384Z,14.90
2023-03-07T12:43:31.425Z,11.50
2023-03-07T12:44:31.327Z,17.10
2023-03-07T12:45:31.421Z,11.90
2023-03-07T12:46:31.452Z,14.50
2023-03-07T12:47:31.302Z,18.20
2023-03-07T12:48:31.281Z,15.30
2023-03-07T12:49:40.923Z,14.80
2023-03-07T12:50:33.263Z,14.80
2023-03-07T12:51:31.295Z,17.60
2023-03-07T12:52:31.263Z,14.30
2023-03-07T12:53:31.255Z,15.20
2023-03-07T12:54:31.318Z,14.00
2023-03-07T12:55:32.244Z,15.90
2023-03-07T12:56:31.223Z,17.20
2023-03-07T12:57:31.201Z,14.20
2023-03-07T12:58:31.251Z,13.60
2023-03-07T12:59:31.255Z,15.80
2023-03-07T13:00:31.196Z,12.10
2023-03-07T13:01:31.284Z,15.20
2023-03-07T13:02:31.202Z,12.40
2023-03-07T13:03:31.780Z,12.00
2023-03-07T13:04:31.437Z,16.40
2023-03-07T13:05:31.235Z,13.80
2023-03-07T13:06:31.194Z,14.00
2023-03-07T13:07:31.158Z,11.60